sensor_id;sensor_type;location;lat;lon;timestamp;P1;durP1;ratioP1;P2;durP2;ratioP2
39872;SDS011;63160;48.854;9.292;2023-04-28T00:01:40;4.28;;;3.65;;
39872;SDS011;63160;48.854;9.292;2023-04-28T00:04:07;5.20;;;3.97;;
39872;SDS011;63160;48.854;9.292;2023-04-28T00:06:34;4.03;;;3.38;;
39872;SDS011;63160;48.854;9.292;2023-04-28T00:09:02;4.97;;;3.53;;
39872;SDS011;63160;48.854;9.292;2023-04-28T00:11:29;5.80;;;4.20;;
39872;SDS011;63160;48.854;9.292;2023-04-28T00:13:56;4.93;;;3.47;;
39872;SDS011;63160;48.854;9.292;2023-04-28T00:16:22;5.68;;;3.63;;
39872;SDS011;63160;48.854;9.292;2023-04-28T00:18:49;3.70;;;3.22;;
39872;SDS011;63160;48.854;9.292;2023-04-28T00:21:16;3.95;;;3.20;;
39872;SDS011;63160;48.854;9.292;2023-04-28T00:23:43;6.95;;;4.25;;
39872;SDS011;63160;48.854;9.292;2023-04-28T00:26:10;4.32;;;3.95;;
39872;SDS011;63160;48.854;9.292;2023-04-28T00:28:39;4.05;;;3.42;;
39872;SDS011;63160;48.854;9.292;2023-04-28T00:31:10;4.78;;;3.95;;
39872;SDS011;63160;48.854;9.292;2023-04-28T00:33:41;4.45;;;3.33;;
39872;SDS011;63160;48.854;9.292;2023-04-28T00:36:09;3.50;;;3.20;;
39872;SDS011;63160;48.854;9.292;2023-04-28T00:38:36;5.30;;;3.53;;
39872;SDS011;63160;48.854;9.292;2023-04-28T00:41:03;4.57;;;3.55;;
39872;SDS011;63160;48.854;9.292;2023-04-28T00:43:30;7.28;;;4.05;;
39872;SDS011;63160;48.854;9.292;2023-04-28T00:45:56;4.38;;;3.58;;
39872;SDS011;63160;48.854;9.292;2023-04-28T00:48:23;5.30;;;3.20;;
39872;SDS011;63160;48.854;9.292;2023-04-28T00:50:50;4.13;;;3.72;;
39872;SDS011;63160;48.854;9.292;2023-04-28T00:53:17;3.50;;;3.20;;
39872;SDS011;63160;48.854;9.292;2023-04-28T00:55:44;3.92;;;3.13;;
39872;SDS011;63160;48.854;9.292;2023-04-28T00:58:11;4.32;;;3.40;;
39872;SDS011;63160;48.854;9.292;2023-04-28T01:00:38;5.50;;;3.25;;
39872;SDS011;63160;48.854;9.292;2023-04-28T01:03:05;3.75;;;2.83;;
39872;SDS011;63160;48.854;9.292;2023-04-28T01:05:33;3.85;;;2.88;;
39872;SDS011;63160;48.854;9.292;2023-04-28T01:08:00;4.82;;;3.13;;
39872;SDS011;63160;48.854;9.292;2023-04-28T01:10:27;3.80;;;3.15;;
39872;SDS011;63160;48.854;9.292;2023-04-28T01:12:56;4.55;;;3.38;;
39872;SDS011;63160;48.854;9.292;2023-04-28T01:15:23;4.57;;;3.38;;
39872;SDS011;63160;48.854;9.292;2023-04-28T01:17:52;4.97;;;3.75;;
39872;SDS011;63160;48.854;9.292;2023-04-28T01:20:19;3.55;;;3.13;;
39872;SDS011;63160;48.854;9.292;2023-04-28T01:22:46;4.75;;;3.33;;
39872;SDS011;63160;48.854;9.292;2023-04-28T01:25:13;3.97;;;3.30;;
39872;SDS011;63160;48.854;9.292;2023-04-28T01:27:40;6.07;;;3.88;;
39872;SDS011;63160;48.854;9.292;2023-04-28T01:30:09;5.57;;;4.88;;
39872;SDS011;63160;48.854;9.292;2023-04-28T01:32:37;5.93;;;3.35;;
39872;SDS011;63160;48.854;9.292;2023-04-28T01:35:04;6.88;;;3.55;;
39872;SDS011;63160;48.854;9.292;2023-04-28T01:37:33;4.60;;;3.25;;
39872;SDS011;63160;48.854;9.292;2023-04-28T01:40:00;5.18;;;3.60;;
39872;SDS011;63160;48.854;9.292;2023-04-28T01:42:26;4.50;;;3.08;;
39872;SDS011;63160;48.854;9.292;2023-04-28T01:44:53;4.80;;;3.85;;
39872;SDS011;63160;48.854;9.292;2023-04-28T01:47:20;4.82;;;3.13;;
39872;SDS011;63160;48.854;9.292;2023-04-28T01:49:47;4.95;;;3.08;;
39872;SDS011;63160;48.854;9.292;2023-04-28T01:52:15;4.13;;;3.17;;
39872;SDS011;63160;48.854;9.292;2023-04-28T01:54:42;3.90;;;3.35;;
39872;SDS011;63160;48.854;9.292;2023-04-28T01:57:09;4.30;;;3.33;;
39872;SDS011;63160;48.854;9.292;2023-04-28T01:59:36;4.75;;;3.40;;
39872;SDS011;63160;48.854;9.292;2023-04-28T02:02:04;6.25;;;3.55;;
39872;SDS011;63160;48.854;9.292;2023-04-28T02:04:32;4.75;;;2.75;;
39872;SDS011;63160;48.854;9.292;2023-04-28T02:06:58;4.47;;;3.30;;
39872;SDS011;63160;48.854;9.292;2023-04-28T02:09:25;4.80;;;3.05;;
39872;SDS011;63160;48.854;9.292;2023-04-28T02:11:52;4.18;;;3.75;;
39872;SDS011;63160;48.854;9.292;2023-04-28T02:14:19;5.32;;;3.10;;
39872;SDS011;63160;48.854;9.292;2023-04-28T02:16:46;5.82;;;3.88;;
39872;SDS011;63160;48.854;9.292;2023-04-28T02:19:13;4.00;;;3.42;;
39872;SDS011;63160;48.854;9.292;2023-04-28T02:21:41;6.45;;;3.65;;
39872;SDS011;63160;48.854;9.292;2023-04-28T02:24:08;4.38;;;3.60;;
39872;SDS011;63160;48.854;9.292;2023-04-28T02:26:35;6.85;;;6.15;;
39872;SDS011;63160;48.854;9.292;2023-04-28T02:29:01;4.78;;;3.33;;
39872;SDS011;63160;48.854;9.292;2023-04-28T02:31:31;5.03;;;4.53;;
39872;SDS011;63160;48.854;9.292;2023-04-28T02:33:58;5.28;;;4.03;;
39872;SDS011;63160;48.854;9.292;2023-04-28T02:36:25;4.72;;;3.55;;
39872;SDS011;63160;48.854;9.292;2023-04-28T02:38:53;4.13;;;3.72;;
39872;SDS011;63160;48.854;9.292;2023-04-28T02:41:20;6.18;;;3.60;;
39872;SDS011;63160;48.854;9.292;2023-04-28T02:43:46;4.72;;;3.38;;
39872;SDS011;63160;48.854;9.292;2023-04-28T02:46:13;4.07;;;3.50;;
39872;SDS011;63160;48.854;9.292;2023-04-28T02:48:40;3.75;;;2.90;;
39872;SDS011;63160;48.854;9.292;2023-04-28T02:51:08;5.38;;;3.83;;
39872;SDS011;63160;48.854;9.292;2023-04-28T02:53:35;3.92;;;3.53;;
39872;SDS011;63160;48.854;9.292;2023-04-28T02:56:05;5.07;;;3.38;;
39872;SDS011;63160;48.854;9.292;2023-04-28T02:58:32;4.22;;;3.72;;
39872;SDS011;63160;48.854;9.292;2023-04-28T03:00:59;4.10;;;3.17;;
39872;SDS011;63160;48.854;9.292;2023-04-28T03:03:26;4.72;;;3.08;;
39872;SDS011;63160;48.854;9.292;2023-04-28T03:05:53;5.00;;;3.70;;
39872;SDS011;63160;48.854;9.292;2023-04-28T03:08:22;4.35;;;3.75;;
39872;SDS011;63160;48.854;9.292;2023-04-28T03:10:49;4.60;;;3.38;;
39872;SDS011;63160;48.854;9.292;2023-04-28T03:13:16;4.40;;;4.00;;
39872;SDS011;63160;48.854;9.292;2023-04-28T03:15:43;4.22;;;3.38;;
39872;SDS011;63160;48.854;9.292;2023-04-28T03:18:10;4.78;;;3.45;;
39872;SDS011;63160;48.854;9.292;2023-04-28T03:20:37;5.10;;;4.25;;
39872;SDS011;63160;48.854;9.292;2023-04-28T03:23:04;5.18;;;3.53;;
39872;SDS011;63160;48.854;9.292;2023-04-28T03:25:31;6.70;;;5.13;;
39872;SDS011;63160;48.854;9.292;2023-04-28T03:27:57;6.82;;;4.20;;
39872;SDS011;63160;48.854;9.292;2023-04-28T03:30:24;7.72;;;4.90;;
39872;SDS011;63160;48.854;9.292;2023-04-28T03:32:51;6.43;;;5.75;;
39872;SDS011;63160;48.854;9.292;2023-04-28T03:35:18;5.80;;;4.47;;
39872;SDS011;63160;48.854;9.292;2023-04-28T03:37:45;6.55;;;5.85;;
39872;SDS011;63160;48.854;9.292;2023-04-28T03:40:12;6.25;;;4.60;;
39872;SDS011;63160;48.854;9.292;2023-04-28T03:43:11;7.88;;;4.78;;
39872;SDS011;63160;48.854;9.292;2023-04-28T03:45:44;5.93;;;4.80;;
39872;SDS011;63160;48.854;9.292;2023-04-28T03:48:11;6.85;;;5.13;;
39872;SDS011;63160;48.854;9.292;2023-04-28T03:50:38;5.82;;;5.03;;
39872;SDS011;63160;48.854;9.292;2023-04-28T03:53:06;7.32;;;5.43;;
39872;SDS011;63160;48.854;9.292;2023-04-28T03:55:33;6.00;;;5.00;;
39872;SDS011;63160;48.854;9.292;2023-04-28T03:58:00;6.10;;;4.82;;
39872;SDS011;63160;48.854;9.292;2023-04-28T04:00:27;6.70;;;5.10;;
39872;SDS011;63160;48.854;9.292;2023-04-28T04:02:54;7.45;;;4.72;;
39872;SDS011;63160;48.854;9.292;2023-04-28T04:05:22;7.45;;;5.78;;
39872;SDS011;63160;48.854;9.292;2023-04-28T04:07:49;7.40;;;5.03;;
39872;SDS011;63160;48.854;9.292;2023-04-28T04:10:16;6.10;;;4.90;;
39872;SDS011;63160;48.854;9.292;2023-04-28T04:12:43;6.15;;;5.30;;
39872;SDS011;63160;48.854;9.292;2023-04-28T04:15:10;7.88;;;5.40;;
39872;SDS011;63160;48.854;9.292;2023-04-28T04:17:38;6.40;;;5.80;;
39872;SDS011;63160;48.854;9.292;2023-04-28T04:20:05;8.38;;;5.60;;
39872;SDS011;63160;48.854;9.292;2023-04-28T04:22:33;6.63;;;4.40;;
39872;SDS011;63160;48.854;9.292;2023-04-28T04:24:59;5.22;;;4.35;;
39872;SDS011;63160;48.854;9.292;2023-04-28T04:27:26;4.88;;;3.83;;
39872;SDS011;63160;48.854;9.292;2023-04-28T04:29:54;6.38;;;4.43;;
39872;SDS011;63160;48.854;9.292;2023-04-28T04:32:20;6.93;;;5.15;;
39872;SDS011;63160;48.854;9.292;2023-04-28T04:34:48;6.20;;;5.63;;
39872;SDS011;63160;48.854;9.292;2023-04-28T04:37:15;6.18;;;4.47;;
39872;SDS011;63160;48.854;9.292;2023-04-28T04:39:49;7.18;;;4.85;;
39872;SDS011;63160;48.854;9.292;2023-04-28T04:42:15;5.20;;;4.60;;
39872;SDS011;63160;48.854;9.292;2023-04-28T04:44:58;5.53;;;4.22;;
39872;SDS011;63160;48.854;9.292;2023-04-28T04:47:28;6.82;;;4.57;;
39872;SDS011;63160;48.854;9.292;2023-04-28T04:49:55;7.18;;;5.03;;
39872;SDS011;63160;48.854;9.292;2023-04-28T04:52:22;9.23;;;5.55;;
39872;SDS011;63160;48.854;9.292;2023-04-28T04:54:49;6.65;;;4.53;;
39872;SDS011;63160;48.854;9.292;2023-04-28T04:57:16;6.50;;;4.65;;
39872;SDS011;63160;48.854;9.292;2023-04-28T05:00:02;6.30;;;5.60;;
39872;SDS011;63160;48.854;9.292;2023-04-28T05:02:30;6.97;;;4.80;;
39872;SDS011;63160;48.854;9.292;2023-04-28T05:04:58;6.20;;;5.15;;
39872;SDS011;63160;48.854;9.292;2023-04-28T05:07:47;8.73;;;5.88;;
39872;SDS011;63160;48.854;9.292;2023-04-28T05:10:14;8.13;;;5.85;;
39872;SDS011;63160;48.854;9.292;2023-04-28T05:12:42;7.85;;;7.05;;
39872;SDS011;63160;48.854;9.292;2023-04-28T05:15:15;5.82;;;4.75;;
39872;SDS011;63160;48.854;9.292;2023-04-28T05:17:51;6.45;;;4.80;;
39872;SDS011;63160;48.854;9.292;2023-04-28T05:20:18;6.47;;;5.28;;
39872;SDS011;63160;48.854;9.292;2023-04-28T05:22:45;5.38;;;4.40;;
39872;SDS011;63160;48.854;9.292;2023-04-28T05:25:12;6.55;;;5.38;;
39872;SDS011;63160;48.854;9.292;2023-04-28T05:27:39;7.45;;;4.53;;
39872;SDS011;63160;48.854;9.292;2023-04-28T05:30:08;5.72;;;4.65;;
39872;SDS011;63160;48.854;9.292;2023-04-28T05:32:36;6.40;;;5.25;;
39872;SDS011;63160;48.854;9.292;2023-04-28T05:35:03;5.50;;;4.28;;
39872;SDS011;63160;48.854;9.292;2023-04-28T05:37:30;5.68;;;4.55;;
39872;SDS011;63160;48.854;9.292;2023-04-28T05:39:57;5.63;;;4.82;;
39872;SDS011;63160;48.854;9.292;2023-04-28T05:42:24;8.60;;;4.70;;
39872;SDS011;63160;48.854;9.292;2023-04-28T05:44:51;7.22;;;4.88;;
39872;SDS011;63160;48.854;9.292;2023-04-28T05:47:17;5.53;;;4.70;;
39872;SDS011;63160;48.854;9.292;2023-04-28T05:49:44;10.50;;;5.80;;
39872;SDS011;63160;48.854;9.292;2023-04-28T05:52:11;6.25;;;4.57;;
39872;SDS011;63160;48.854;9.292;2023-04-28T05:54:37;6.85;;;4.60;;
39872;SDS011;63160;48.854;9.292;2023-04-28T05:57:04;6.80;;;4.45;;
39872;SDS011;63160;48.854;9.292;2023-04-28T05:59:31;8.57;;;5.15;;
39872;SDS011;63160;48.854;9.292;2023-04-28T06:01:59;5.53;;;4.72;;
39872;SDS011;63160;48.854;9.292;2023-04-28T06:04:26;7.65;;;4.78;;
39872;SDS011;63160;48.854;9.292;2023-04-28T06:06:53;7.70;;;4.78;;
39872;SDS011;63160;48.854;9.292;2023-04-28T06:09:20;5.63;;;4.78;;
39872;SDS011;63160;48.854;9.292;2023-04-28T06:11:47;7.75;;;5.05;;
39872;SDS011;63160;48.854;9.292;2023-04-28T06:14:14;5.20;;;4.70;;
39872;SDS011;63160;48.854;9.292;2023-04-28T06:16:42;5.25;;;3.92;;
39872;SDS011;63160;48.854;9.292;2023-04-28T06:19:08;6.97;;;4.65;;
39872;SDS011;63160;48.854;9.292;2023-04-28T06:21:35;8.57;;;5.50;;
39872;SDS011;63160;48.854;9.292;2023-04-28T06:24:02;6.90;;;4.78;;
39872;SDS011;63160;48.854;9.292;2023-04-28T06:26:29;6.88;;;4.45;;
39872;SDS011;63160;48.854;9.292;2023-04-28T06:28:56;7.78;;;5.22;;
39872;SDS011;63160;48.854;9.292;2023-04-28T06:31:23;7.35;;;6.30;;
39872;SDS011;63160;48.854;9.292;2023-04-28T06:33:52;5.93;;;4.60;;
39872;SDS011;63160;48.854;9.292;2023-04-28T06:36:21;7.57;;;4.80;;
39872;SDS011;63160;48.854;9.292;2023-04-28T06:38:47;6.47;;;5.00;;
39872;SDS011;63160;48.854;9.292;2023-04-28T06:41:15;5.07;;;4.47;;
39872;SDS011;63160;48.854;9.292;2023-04-28T06:43:45;5.65;;;4.40;;
39872;SDS011;63160;48.854;9.292;2023-04-28T06:46:27;6.25;;;4.80;;
39872;SDS011;63160;48.854;9.292;2023-04-28T06:48:55;6.55;;;4.68;;
39872;SDS011;63160;48.854;9.292;2023-04-28T06:51:21;6.85;;;5.18;;
39872;SDS011;63160;48.854;9.292;2023-04-28T06:53:49;6.45;;;4.40;;
39872;SDS011;63160;48.854;9.292;2023-04-28T06:56:19;6.35;;;4.93;;
39872;SDS011;63160;48.854;9.292;2023-04-28T06:58:46;8.07;;;4.20;;
39872;SDS011;63160;48.854;9.292;2023-04-28T07:01:13;6.90;;;4.32;;
39872;SDS011;63160;48.854;9.292;2023-04-28T07:03:40;7.72;;;4.40;;
39872;SDS011;63160;48.854;9.292;2023-04-28T07:06:07;6.05;;;4.97;;
39872;SDS011;63160;48.854;9.292;2023-04-28T07:08:34;6.38;;;4.10;;
39872;SDS011;63160;48.854;9.292;2023-04-28T07:11:02;5.70;;;4.15;;
39872;SDS011;63160;48.854;9.292;2023-04-28T07:13:30;6.88;;;4.50;;
39872;SDS011;63160;48.854;9.292;2023-04-28T07:15:57;5.60;;;4.40;;
39872;SDS011;63160;48.854;9.292;2023-04-28T07:18:24;5.78;;;4.53;;
39872;SDS011;63160;48.854;9.292;2023-04-28T07:20:51;6.88;;;4.75;;
39872;SDS011;63160;48.854;9.292;2023-04-28T07:23:18;7.88;;;6.00;;
39872;SDS011;63160;48.854;9.292;2023-04-28T07:25:44;7.65;;;4.75;;
39872;SDS011;63160;48.854;9.292;2023-04-28T07:28:12;7.07;;;4.50;;
39872;SDS011;63160;48.854;9.292;2023-04-28T07:30:39;4.90;;;4.40;;
39872;SDS011;63160;48.854;9.292;2023-04-28T07:33:06;6.30;;;4.43;;
39872;SDS011;63160;48.854;9.292;2023-04-28T07:35:33;6.88;;;5.28;;
39872;SDS011;63160;48.854;9.292;2023-04-28T07:38:00;6.65;;;4.22;;
39872;SDS011;63160;48.854;9.292;2023-04-28T07:40:27;6.28;;;4.43;;
39872;SDS011;63160;48.854;9.292;2023-04-28T07:42:54;6.95;;;4.72;;
39872;SDS011;63160;48.854;9.292;2023-04-28T07:45:21;5.95;;;4.35;;
39872;SDS011;63160;48.854;9.292;2023-04-28T07:47:48;6.25;;;4.65;;
39872;SDS011;63160;48.854;9.292;2023-04-28T07:50:14;13.07;;;8.57;;
39872;SDS011;63160;48.854;9.292;2023-04-28T07:52:42;8.70;;;4.93;;
39872;SDS011;63160;48.854;9.292;2023-04-28T07:55:09;6.90;;;5.28;;
39872;SDS011;63160;48.854;9.292;2023-04-28T07:57:36;10.93;;;7.15;;
39872;SDS011;63160;48.854;9.292;2023-04-28T08:00:03;8.50;;;7.18;;
39872;SDS011;63160;48.854;9.292;2023-04-28T08:02:37;7.05;;;5.00;;
39872;SDS011;63160;48.854;9.292;2023-04-28T08:05:04;9.13;;;6.10;;
39872;SDS011;63160;48.854;9.292;2023-04-28T08:07:33;7.93;;;5.18;;
39872;SDS011;63160;48.854;9.292;2023-04-28T08:09:59;9.25;;;5.43;;
39872;SDS011;63160;48.854;9.292;2023-04-28T08:12:26;7.10;;;5.05;;
39872;SDS011;63160;48.854;9.292;2023-04-28T08:14:54;7.40;;;5.53;;
39872;SDS011;63160;48.854;9.292;2023-04-28T08:17:20;7.85;;;5.53;;
39872;SDS011;63160;48.854;9.292;2023-04-28T08:19:47;10.63;;;6.55;;
39872;SDS011;63160;48.854;9.292;2023-04-28T08:22:14;8.45;;;5.45;;
39872;SDS011;63160;48.854;9.292;2023-04-28T08:24:41;8.02;;;5.57;;
39872;SDS011;63160;48.854;9.292;2023-04-28T08:27:07;7.65;;;5.07;;
39872;SDS011;63160;48.854;9.292;2023-04-28T08:29:34;7.97;;;5.80;;
39872;SDS011;63160;48.854;9.292;2023-04-28T08:32:01;11.48;;;6.72;;
39872;SDS011;63160;48.854;9.292;2023-04-28T08:34:28;9.18;;;7.28;;
39872;SDS011;63160;48.854;9.292;2023-04-28T08:36:54;11.77;;;8.43;;
39872;SDS011;63160;48.854;9.292;2023-04-28T08:39:21;9.63;;;6.97;;
39872;SDS011;63160;48.854;9.292;2023-04-28T08:41:49;11.73;;;6.40;;
39872;SDS011;63160;48.854;9.292;2023-04-28T08:44:16;8.48;;;5.68;;
39872;SDS011;63160;48.854;9.292;2023-04-28T08:46:44;7.03;;;5.13;;
39872;SDS011;63160;48.854;9.292;2023-04-28T08:49:15;9.27;;;5.60;;
39872;SDS011;63160;48.854;9.292;2023-04-28T08:51:45;6.22;;;4.55;;
39872;SDS011;63160;48.854;9.292;2023-04-28T08:54:15;9.20;;;5.65;;
39872;SDS011;63160;48.854;9.292;2023-04-28T08:56:51;7.57;;;5.13;;
39872;SDS011;63160;48.854;9.292;2023-04-28T08:59:18;8.02;;;5.65;;
39872;SDS011;63160;48.854;9.292;2023-04-28T09:01:47;6.45;;;5.68;;
39872;SDS011;63160;48.854;9.292;2023-04-28T09:04:15;6.72;;;5.22;;
39872;SDS011;63160;48.854;9.292;2023-04-28T09:06:44;7.38;;;6.20;;
39872;SDS011;63160;48.854;9.292;2023-04-28T09:09:18;8.00;;;5.40;;
39872;SDS011;63160;48.854;9.292;2023-04-28T09:14:29;9.30;;;6.50;;
39872;SDS011;63160;48.854;9.292;2023-04-28T09:16:58;7.38;;;5.72;;
39872;SDS011;63160;48.854;9.292;2023-04-28T09:19:34;8.48;;;5.28;;
39872;SDS011;63160;48.854;9.292;2023-04-28T09:22:03;7.20;;;5.78;;
39872;SDS011;63160;48.854;9.292;2023-04-28T09:24:50;7.88;;;6.00;;
39872;SDS011;63160;48.854;9.292;2023-04-28T09:27:20;6.97;;;5.63;;
39872;SDS011;63160;48.854;9.292;2023-04-28T09:29:52;7.68;;;5.85;;
39872;SDS011;63160;48.854;9.292;2023-04-28T09:32:20;6.80;;;4.90;;
39872;SDS011;63160;48.854;9.292;2023-04-28T09:34:52;6.93;;;5.40;;
39872;SDS011;63160;48.854;9.292;2023-04-28T09:37:23;6.95;;;5.07;;
39872;SDS011;63160;48.854;9.292;2023-04-28T09:39:51;7.68;;;5.45;;
39872;SDS011;63160;48.854;9.292;2023-04-28T09:42:32;7.88;;;6.10;;
39872;SDS011;63160;48.854;9.292;2023-04-28T09:45:04;9.02;;;6.38;;
39872;SDS011;63160;48.854;9.292;2023-04-28T09:47:32;6.00;;;5.32;;
39872;SDS011;63160;48.854;9.292;2023-04-28T09:50:04;8.77;;;5.50;;
39872;SDS011;63160;48.854;9.292;2023-04-28T09:52:34;8.43;;;6.45;;
39872;SDS011;63160;48.854;9.292;2023-04-28T09:55:03;7.82;;;6.28;;
39872;SDS011;63160;48.854;9.292;2023-04-28T09:57:32;7.50;;;6.47;;
39872;SDS011;63160;48.854;9.292;2023-04-28T10:00:00;8.68;;;7.78;;
39872;SDS011;63160;48.854;9.292;2023-04-28T10:02:31;8.45;;;7.15;;
39872;SDS011;63160;48.854;9.292;2023-04-28T10:05:08;13.70;;;8.18;;
39872;SDS011;63160;48.854;9.292;2023-04-28T10:07:36;9.65;;;7.60;;
39872;SDS011;63160;48.854;9.292;2023-04-28T10:10:05;9.80;;;7.65;;
39872;SDS011;63160;48.854;9.292;2023-04-28T10:12:33;13.52;;;9.13;;
39872;SDS011;63160;48.854;9.292;2023-04-28T10:15:00;8.90;;;7.82;;
39872;SDS011;63160;48.854;9.292;2023-04-28T10:17:27;10.48;;;7.80;;
39872;SDS011;63160;48.854;9.292;2023-04-28T10:19:55;9.02;;;7.30;;
39872;SDS011;63160;48.854;9.292;2023-04-28T10:25:27;8.75;;;6.97;;
39872;SDS011;63160;48.854;9.292;2023-04-28T10:27:56;9.07;;;6.72;;
39872;SDS011;63160;48.854;9.292;2023-04-28T10:30:23;8.70;;;6.95;;
39872;SDS011;63160;48.854;9.292;2023-04-28T10:38:11;8.13;;;5.55;;
39872;SDS011;63160;48.854;9.292;2023-04-28T10:40:40;7.38;;;6.43;;
39872;SDS011;63160;48.854;9.292;2023-04-28T10:43:08;5.32;;;4.68;;
39872;SDS011;63160;48.854;9.292;2023-04-28T10:48:15;5.32;;;4.65;;
39872;SDS011;63160;48.854;9.292;2023-04-28T10:56:09;5.35;;;4.85;;
39872;SDS011;63160;48.854;9.292;2023-04-28T11:03:51;8.02;;;5.43;;
39872;SDS011;63160;48.854;9.292;2023-04-28T11:06:40;6.55;;;5.40;;
39872;SDS011;63160;48.854;9.292;2023-04-28T11:11:37;6.10;;;4.78;;
39872;SDS011;63160;48.854;9.292;2023-04-28T11:19:39;4.75;;;4.03;;
39872;SDS011;63160;48.854;9.292;2023-04-28T11:22:18;10.25;;;3.67;;
39872;SDS011;63160;48.854;9.292;2023-04-28T11:27:26;4.32;;;2.80;;
39872;SDS011;63160;48.854;9.292;2023-04-28T11:29:54;4.35;;;2.90;;
39872;SDS011;63160;48.854;9.292;2023-04-28T11:32:28;3.65;;;3.22;;
39872;SDS011;63160;48.854;9.292;2023-04-28T11:34:56;4.40;;;3.50;;
39872;SDS011;63160;48.854;9.292;2023-04-28T11:37:22;3.53;;;2.65;;
39872;SDS011;63160;48.854;9.292;2023-04-28T11:39:50;4.20;;;3.22;;
39872;SDS011;63160;48.854;9.292;2023-04-28T11:42:17;4.53;;;2.90;;
39872;SDS011;63160;48.854;9.292;2023-04-28T11:44:51;4.47;;;2.05;;
39872;SDS011;63160;48.854;9.292;2023-04-28T11:47:33;2.55;;;1.90;;
39872;SDS011;63160;48.854;9.292;2023-04-28T11:50:00;2.72;;;1.55;;
39872;SDS011;63160;48.854;9.292;2023-04-28T11:52:28;2.85;;;1.60;;
39872;SDS011;63160;48.854;9.292;2023-04-28T11:54:56;2.30;;;1.50;;
39872;SDS011;63160;48.854;9.292;2023-04-28T11:57:24;2.80;;;1.65;;
39872;SDS011;63160;48.854;9.292;2023-04-28T11:59:52;2.35;;;1.45;;
39872;SDS011;63160;48.854;9.292;2023-04-28T12:02:25;3.47;;;2.60;;
39872;SDS011;63160;48.854;9.292;2023-04-28T12:07:47;2.22;;;1.73;;
39872;SDS011;63160;48.854;9.292;2023-04-28T12:10:14;1.67;;;1.30;;
39872;SDS011;63160;48.854;9.292;2023-04-28T12:12:42;1.20;;;0.90;;
39872;SDS011;63160;48.854;9.292;2023-04-28T12:15:18;4.97;;;2.25;;
39872;SDS011;63160;48.854;9.292;2023-04-28T12:17:47;2.67;;;1.23;;
39872;SDS011;63160;48.854;9.292;2023-04-28T12:20:33;2.50;;;1.20;;
39872;SDS011;63160;48.854;9.292;2023-04-28T12:23:01;2.50;;;1.20;;
39872;SDS011;63160;48.854;9.292;2023-04-28T12:25:31;7.38;;;2.00;;
39872;SDS011;63160;48.854;9.292;2023-04-28T12:27:59;2.05;;;1.83;;
39872;SDS011;63160;48.854;9.292;2023-04-28T12:30:30;6.78;;;1.73;;
39872;SDS011;63160;48.854;9.292;2023-04-28T12:33:00;4.53;;;1.60;;
39872;SDS011;63160;48.854;9.292;2023-04-28T12:35:27;2.05;;;1.50;;
39872;SDS011;63160;48.854;9.292;2023-04-28T12:37:55;2.80;;;2.10;;
39872;SDS011;63160;48.854;9.292;2023-04-28T12:40:24;4.10;;;3.42;;
39872;SDS011;63160;48.854;9.292;2023-04-28T12:42:51;4.03;;;1.88;;
39872;SDS011;63160;48.854;9.292;2023-04-28T12:45:18;3.28;;;1.20;;
39872;SDS011;63160;48.854;9.292;2023-04-28T12:47:45;1.50;;;1.40;;
39872;SDS011;63160;48.854;9.292;2023-04-28T12:50:13;1.63;;;0.88;;
39872;SDS011;63160;48.854;9.292;2023-04-28T12:52:40;3.85;;;0.65;;
39872;SDS011;63160;48.854;9.292;2023-04-28T12:55:07;2.70;;;0.50;;
39872;SDS011;63160;48.854;9.292;2023-04-28T12:57:34;4.30;;;1.38;;
39872;SDS011;63160;48.854;9.292;2023-04-28T13:00:05;11.13;;;4.07;;
39872;SDS011;63160;48.854;9.292;2023-04-28T13:02:33;3.50;;;1.35;;
39872;SDS011;63160;48.854;9.292;2023-04-28T13:05:00;7.90;;;2.83;;
39872;SDS011;63160;48.854;9.292;2023-04-28T13:07:28;2.58;;;1.23;;
39872;SDS011;63160;48.854;9.292;2023-04-28T13:09:55;2.17;;;0.70;;
39872;SDS011;63160;48.854;9.292;2023-04-28T13:12:22;3.17;;;0.77;;
39872;SDS011;63160;48.854;9.292;2023-04-28T13:14:49;1.65;;;0.57;;
39872;SDS011;63160;48.854;9.292;2023-04-28T13:17:16;1.42;;;1.00;;
39872;SDS011;63160;48.854;9.292;2023-04-28T13:19:43;1.15;;;0.70;;
39872;SDS011;63160;48.854;9.292;2023-04-28T13:22:10;1.48;;;0.40;;
39872;SDS011;63160;48.854;9.292;2023-04-28T13:24:37;0.80;;;0.52;;
39872;SDS011;63160;48.854;9.292;2023-04-28T13:27:04;2.05;;;1.50;;
39872;SDS011;63160;48.854;9.292;2023-04-28T13:29:35;1.02;;;0.50;;
39872;SDS011;63160;48.854;9.292;2023-04-28T13:32:02;2.08;;;0.85;;
39872;SDS011;63160;48.854;9.292;2023-04-28T13:34:31;0.82;;;0.63;;
39872;SDS011;63160;48.854;9.292;2023-04-28T13:36:58;1.48;;;0.98;;
39872;SDS011;63160;48.854;9.292;2023-04-28T13:39:25;1.35;;;0.73;;
39872;SDS011;63160;48.854;9.292;2023-04-28T13:41:52;2.67;;;0.88;;
39872;SDS011;63160;48.854;9.292;2023-04-28T13:44:18;2.17;;;0.75;;
39872;SDS011;63160;48.854;9.292;2023-04-28T13:46:45;1.42;;;0.60;;
39872;SDS011;63160;48.854;9.292;2023-04-28T13:49:12;3.80;;;2.13;;
39872;SDS011;63160;48.854;9.292;2023-04-28T13:51:39;3.95;;;2.55;;
39872;SDS011;63160;48.854;9.292;2023-04-28T13:54:06;2.50;;;2.00;;
39872;SDS011;63160;48.854;9.292;2023-04-28T13:56:34;1.40;;;1.30;;
39872;SDS011;63160;48.854;9.292;2023-04-28T13:59:02;3.20;;;2.47;;
39872;SDS011;63160;48.854;9.292;2023-04-28T14:01:29;1.67;;;1.48;;
39872;SDS011;63160;48.854;9.292;2023-04-28T14:03:56;1.92;;;1.60;;
39872;SDS011;63160;48.854;9.292;2023-04-28T14:06:23;1.05;;;0.88;;
39872;SDS011;63160;48.854;9.292;2023-04-28T14:08:50;1.63;;;1.02;;
39872;SDS011;63160;48.854;9.292;2023-04-28T14:11:17;2.03;;;0.70;;
39872;SDS011;63160;48.854;9.292;2023-04-28T14:13:43;1.73;;;0.82;;
39872;SDS011;63160;48.854;9.292;2023-04-28T14:16:10;2.22;;;0.98;;
39872;SDS011;63160;48.854;9.292;2023-04-28T14:18:37;2.33;;;0.98;;
39872;SDS011;63160;48.854;9.292;2023-04-28T14:21:04;3.50;;;0.93;;
39872;SDS011;63160;48.854;9.292;2023-04-28T14:23:34;3.03;;;1.23;;
39872;SDS011;63160;48.854;9.292;2023-04-28T14:26:01;3.03;;;1.10;;
39872;SDS011;63160;48.854;9.292;2023-04-28T14:28:28;2.80;;;1.17;;
39872;SDS011;63160;48.854;9.292;2023-04-28T14:30:55;1.38;;;0.77;;
39872;SDS011;63160;48.854;9.292;2023-04-28T14:33:22;2.40;;;1.27;;
39872;SDS011;63160;48.854;9.292;2023-04-28T14:35:50;2.88;;;1.20;;
39872;SDS011;63160;48.854;9.292;2023-04-28T14:38:17;1.83;;;0.88;;
39872;SDS011;63160;48.854;9.292;2023-04-28T14:40:44;1.70;;;0.73;;
39872;SDS011;63160;48.854;9.292;2023-04-28T14:43:11;4.95;;;0.63;;
39872;SDS011;63160;48.854;9.292;2023-04-28T14:45:39;2.08;;;0.60;;
39872;SDS011;63160;48.854;9.292;2023-04-28T14:48:06;4.90;;;1.08;;
39872;SDS011;63160;48.854;9.292;2023-04-28T14:50:33;2.67;;;0.85;;
39872;SDS011;63160;48.854;9.292;2023-04-28T14:53:00;3.17;;;0.88;;
39872;SDS011;63160;48.854;9.292;2023-04-28T14:55:31;3.20;;;1.05;;
39872;SDS011;63160;48.854;9.292;2023-04-28T14:57:58;2.50;;;1.00;;
39872;SDS011;63160;48.854;9.292;2023-04-28T15:00:25;1.98;;;0.90;;
39872;SDS011;63160;48.854;9.292;2023-04-28T15:02:52;2.22;;;1.15;;
39872;SDS011;63160;48.854;9.292;2023-04-28T15:05:19;2.28;;;1.10;;
39872;SDS011;63160;48.854;9.292;2023-04-28T15:07:46;1.67;;;0.80;;
39872;SDS011;63160;48.854;9.292;2023-04-28T15:10:13;2.88;;;1.27;;
39872;SDS011;63160;48.854;9.292;2023-04-28T15:12:40;2.67;;;1.35;;
39872;SDS011;63160;48.854;9.292;2023-04-28T15:15:08;2.42;;;0.93;;
39872;SDS011;63160;48.854;9.292;2023-04-28T15:17:35;1.48;;;0.95;;
39872;SDS011;63160;48.854;9.292;2023-04-28T15:20:02;1.33;;;0.88;;
39872;SDS011;63160;48.854;9.292;2023-04-28T15:22:30;2.47;;;1.23;;
39872;SDS011;63160;48.854;9.292;2023-04-28T15:24:56;2.75;;;1.00;;
39872;SDS011;63160;48.854;9.292;2023-04-28T15:27:23;1.90;;;0.88;;
39872;SDS011;63160;48.854;9.292;2023-04-28T15:29:50;3.33;;;0.82;;
39872;SDS011;63160;48.854;9.292;2023-04-28T15:32:17;2.92;;;1.08;;